Time;durP1;ratioP1;P1;durP2;ratioP2;P2;SDS_P1;SDS_P2;PMS_P1;PMS_P2;Temp;Humidity;BMP_temperature;BMP_pressure;BME280_temperature;BME280_humidity;BME280_pressure;Samples;Min_cycle;Max_cycle;Signal;HPM_P1;HPM_P2
2021/03/28 00:01:46;;;;;;;10.73;2.70;;;;;;;7.92;73.62;101601.81;640785;221;24797;-78
2021/03/28 00:04:14;;;;;;;6.67;2.63;;;;;;;7.83;74.10;101597.18;644152;221;25890;-78
2021/03/28 00:06:58;;;;;;;16.40;3.50;;;;;;;7.84;74.14;101594.95;645626;220;24773;-77
2021/03/28 00:09:27;;;;;;;11.40;2.37;;;;;;;7.78;73.84;101591.45;642672;220;24775;-77
2021/03/28 00:12:02;;;;;;;5.10;2.47;;;;;;;7.93;75.26;101600.88;644863;220;24788;-77
2021/03/28 00:14:47;;;;;;;4.67;2.30;;;;;;;7.91;74.92;101604.03;639659;221;25149;-77
2021/03/28 00:17:25;;;;;;;7.45;2.70;;;;;;;8.39;72.96;101605.37;613784;230;33025;-77
2021/03/28 00:19:53;;;;;;;10.80;4.53;;;;;;;8.37;72.91;101602.04;618454;230;23732;-78
2021/03/28 00:22:21;;;;;;;9.07;4.87;;;;;;;8.34;73.31;101600.94;629085;225;26095;-78
2021/03/28 00:24:52;;;;;;;10.90;4.17;;;;;;;8.33;73.06;101594.06;621002;230;24872;-78
2021/03/28 00:27:20;;;;;;;7.67;3.30;;;;;;;8.42;73.17;101590.08;635512;225;24840;-78
2021/03/28 00:29:49;;;;;;;5.60;2.73;;;;;;;8.28;72.69;101594.80;615478;231;24865;-77
2021/03/28 00:32:18;;;;;;;6.87;3.17;;;;;;;8.42;72.78;101596.55;616351;230;24882;-78
2021/03/28 00:34:47;;;;;;;7.93;2.60;;;;;;;8.36;72.81;101603.44;615067;230;24893;-77
2021/03/28 00:37:17;;;;;;;5.07;2.30;;;;;;;8.37;72.94;101590.38;618154;230;24899;-78
2021/03/28 00:39:46;;;;;;;9.73;3.75;;;;;;;8.85;70.67;101585.09;635178;221;33052;-74
2021/03/28 00:42:22;;;;;;;13.43;4.53;;;;;;;8.56;71.48;101584.38;640739;221;23937;-77
2021/03/28 00:44:50;;;;;;;8.93;3.50;;;;;;;8.23;72.42;101583.44;644502;221;24793;-78
2021/03/28 00:47:20;;;;;;;4.37;2.60;;;;;;;8.01;73.11;101586.52;638145;221;24787;-77
2021/03/28 00:49:48;;;;;;;5.00;3.07;;;;;;;8.15;73.41;101590.84;644370;221;24784;-77
2021/03/28 00:52:23;;;;;;;8.30;4.00;;;;;;;8.02;74.08;101588.20;645253;221;24796;-77
2021/03/28 00:54:51;;;;;;;4.87;2.40;;;;;;;8.26;73.12;101588.42;642384;222;25901;-78
2021/03/28 00:57:21;;;;;;;7.43;2.90;;;;;;;8.29;73.92;101586.92;641054;221;24829;-77
2021/03/28 00:59:53;;;;;;;10.20;2.10;;;;;;;8.34;73.05;101581.50;638932;221;25981;-77
2021/03/28 01:02:26;;;;;;;7.40;2.50;;;;;;;8.80;72.18;101584.56;636068;222;32814;-78
2021/03/28 01:05:14;;;;;;;7.15;2.60;;;;;;;8.84;71.36;101576.94;638835;221;32633;-77
2021/03/28 01:07:44;;;;;;;7.30;2.50;;;;;;;8.36;73.54;101577.52;619993;231;23722;-79
2021/03/28 01:10:22;;;;;;;6.13;2.80;;;;;;;8.25;72.77;101580.75;616124;230;24855;-74
2021/03/28 01:13:11;;;;;;;6.13;2.37;;;;;;;7.84;73.73;101572.95;626362;226;23822;-77
2021/03/28 01:16:01;;;;;;;12.83;2.80;;;;;;;7.87;74.04;101574.05;617970;227;26169;-77
2021/03/28 01:18:29;;;;;;;9.78;2.90;;;;;;;8.44;72.78;101573.95;626263;220;32807;-78
2021/03/28 01:20:58;;;;;;;6.60;2.57;;;;;;;7.91;73.24;101577.67;644331;221;23695;-77
2021/03/28 01:23:32;;;;;;;6.63;2.33;;;;;;;7.59;74.72;101584.78;645517;221;24799;-78
2021/03/28 01:26:19;;;;;;;5.70;2.47;;;;;;;7.45;75.79;101589.48;639208;221;24846;-77
2021/03/28 01:28:50;;;;;;;7.47;2.50;;;;;;;7.87;74.22;101586.99;634880;224;41076;-78
2021/03/28 01:31:22;;;;;;;3.70;2.10;;;;;;;7.87;74.27;101583.11;643916;222;24899;-77
2021/03/28 01:33:50;;;;;;;5.37;2.50;;;;;;;7.75;74.01;101593.78;639742;221;24791;-78
2021/03/28 01:36:21;;;;;;;11.70;3.20;;;;;;;7.74;74.72;101585.61;639155;221;24808;-77
2021/03/28 01:38:49;;;;;;;5.93;2.40;;;;;;;7.71;75.67;101597.45;647919;221;24792;-78
2021/03/28 01:41:17;;;;;;;3.27;2.07;;;;;;;7.54;76.21;101596.34;639466;221;24815;-77
2021/03/28 01:43:47;;;;;;;10.20;2.63;;;;;;;7.58;76.40;101601.23;640778;222;29098;-78
2021/03/28 01:46:17;;;;;;;8.47;2.70;;;;;;;7.73;75.50;101596.43;644259;221;28013;-79
2021/03/28 01:48:52;;;;;;;11.23;2.60;;;;;;;7.93;74.80;101593.11;646419;221;24796;-78
2021/03/28 01:51:37;;;;;;;12.00;2.47;;;;;;;7.92;74.44;101594.04;631612;225;27043;-77
2021/03/28 01:54:06;;;;;;;8.73;2.53;;;;;;;7.98;74.33;101589.77;643701;221;24790;-78
2021/03/28 01:56:34;;;;;;;12.63;2.23;;;;;;;7.85;74.71;101587.55;642677;221;24785;-76
2021/03/28 01:59:07;;;;;;;6.70;2.80;;;;;;;7.92;74.94;101587.09;642914;221;29089;-78
2021/03/28 02:01:45;;;;;;;5.33;2.27;;;;;;;7.97;74.08;101577.28;640675;221;24791;-77
2021/03/28 02:04:16;;;;;;;9.33;2.70;;;;;;;8.19;73.60;101578.55;643574;221;24798;-77
2021/03/28 02:06:50;;;;;;;8.40;3.07;;;;;;;7.79;75.29;101577.58;639472;222;24792;-78
2021/03/28 02:09:28;;;;;;;7.23;2.97;;;;;;;7.64;75.56;101577.59;640248;222;24804;-77
2021/03/28 02:12:02;;;;;;;8.70;3.13;;;;;;;7.52;76.24;101583.50;642254;221;25070;-77
2021/03/28 02:14:41;;;;;;;10.32;2.60;;;;;;;7.47;75.91;101587.30;634334;222;32667;-78
2021/03/28 02:17:16;;;;;;;6.47;2.90;;;;;;;7.46;76.76;101595.52;644070;221;25829;-77
2021/03/28 02:19:52;;;;;;;9.13;3.10;;;;;;;7.51;76.81;101594.77;623612;226;32790;-77
2021/03/28 02:22:21;;;;;;;10.90;3.40;;;;;;;7.62;76.39;101587.67;628429;227;28033;-78
2021/03/28 02:24:51;;;;;;;8.37;2.80;;;;;;;7.44;76.93;101587.82;617881;230;24880;-78
2021/03/28 02:27:20;;;;;;;12.20;3.10;;;;;;;7.35;77.50;101588.84;646280;221;24793;-78
2021/03/28 02:29:50;;;;;;;8.07;2.57;;;;;;;7.27;77.09;101590.58;644452;220;24803;-77
2021/03/28 02:32:36;;;;;;;8.43;3.10;;;;;;;7.18;77.35;101584.66;641362;222;25063;-77
2021/03/28 02:35:07;;;;;;;9.50;2.77;;;;;;;7.12;78.02;101590.17;644045;220;25012;-77
2021/03/28 02:37:50;;;;;;;10.00;2.80;;;;;;;7.26;77.06;101595.84;638331;221;32970;-78
2021/03/28 02:40:19;;;;;;;9.23;3.17;;;;;;;7.08;78.21;101600.34;649956;221;24812;-78
2021/03/28 02:42:52;;;;;;;7.67;2.80;;;;;;;7.01;79.11;101597.72;643247;221;24825;-77
2021/03/28 02:45:21;;;;;;;5.77;2.70;;;;;;;7.09;79.05;101598.95;644214;220;24843;-77
2021/03/28 02:47:56;;;;;;;6.40;2.40;;;;;;;7.18;77.40;101595.02;641568;221;25896;-77
2021/03/28 02:50:40;;;;;;;8.47;2.53;;;;;;;7.24;77.21;101589.47;637288;221;24792;-77
2021/03/28 02:53:15;;;;;;;9.87;2.63;;;;;;;7.25;77.84;101586.42;641453;222;24791;-78
2021/03/28 02:55:55;;;;;;;12.40;2.60;;;;;;;7.33;77.05;101591.98;646179;221;24812;-77
2021/03/28 02:58:31;;;;;;;10.63;2.63;;;;;;;7.34;77.25;101580.71;638863;222;24845;-78
2021/03/28 03:01:05;;;;;;;12.43;2.70;;;;;;;7.60;76.49;101586.47;646167;221;24829;-78
2021/03/28 03:03:44;;;;;;;6.57;2.67;;;;;;;7.71;76.32;101576.27;645097;221;24781;-77
2021/03/28 03:06:17;;;;;;;6.50;2.77;;;;;;;7.94;75.58;101577.94;627100;226;24859;-78
2021/03/28 03:08:45;;;;;;;7.27;2.77;;;;;;;8.03;75.96;101578.67;621555;230;24887;-75
2021/03/28 03:11:38;;;;;;;8.00;2.53;;;;;;;8.00;75.55;101589.20;630179;227;24804;-78
2021/03/28 03:14:31;;;;;;;11.90;2.97;;;;;;;8.00;75.30;101580.14;631338;226;24814;-78
2021/03/28 03:17:15;;;;;;;8.30;2.90;;;;;;;8.17;74.83;101585.59;629478;227;31255;-75
2021/03/28 03:20:21;;;;;;;9.10;2.73;;;;;;;8.04;75.04;101587.64;624025;230;24865;-75
2021/03/28 03:23:18;;;;;;;5.97;2.30;;;;;;;8.06;75.68;101586.72;640248;221;24851;-75
2021/03/28 03:26:09;;;;;;;10.13;2.60;;;;;;;8.19;74.61;101578.55;637808;222;24789;-75
2021/03/28 03:29:23;;;;;;;7.40;2.30;;;;;;;8.21;75.04;101584.00;639057;221;24793;-75
2021/03/28 03:32:00;;;;;;;6.13;2.57;;;;;;;7.86;75.51;101584.03;645761;221;32256;-75
2021/03/28 03:34:39;;;;;;;8.20;2.17;;;;;;;7.76;75.58;101585.55;643100;221;24791;-77
2021/03/28 03:37:15;;;;;;;9.30;3.27;;;;;;;7.87;75.38;101584.41;643733;221;26978;-77
2021/03/28 03:39:49;;;;;;;7.03;3.17;;;;;;;7.74;76.49;101586.47;649058;220;24851;-78
2021/03/28 03:42:28;;;;;;;7.97;2.90;;;;;;;7.87;76.12;101574.88;634632;220;32622;-78
2021/03/28 03:45:25;;;;;;;11.17;2.20;;;;;;;7.59;76.04;101586.53;641467;220;23682;-77
2021/03/28 03:47:56;;;;;;;4.60;2.20;;;;;;;7.61;76.82;101594.61;639390;224;24821;-79
2021/03/28 03:50:27;;;;;;;11.60;3.80;;;;;;;7.72;76.87;101590.88;628282;226;24876;-78
2021/03/28 03:53:02;;;;;;;11.40;2.70;;;;;;;7.69;77.11;101593.66;620293;230;24888;-75
2021/03/28 03:55:35;;;;;;;10.80;2.90;;;;;;;7.55;77.06;101594.12;632243;225;24848;-77
2021/03/28 03:58:04;;;;;;;7.43;2.40;;;;;;;7.41;77.03;101594.94;613696;231;24886;-77
2021/03/28 04:00:33;;;;;;;9.40;2.53;;;;;;;7.23;77.62;101597.33;617352;230;24879;-77
2021/03/28 04:03:07;;;;;;;8.67;2.67;;;;;;;7.18;77.61;101591.56;624285;230;24876;-76
2021/03/28 04:05:45;;;;;;;9.50;2.47;;;;;;;7.23;77.10;101586.97;627966;225;28038;-77
2021/03/28 04:08:27;;;;;;;9.83;2.70;;;;;;;7.31;77.36;101584.75;629476;225;24865;-77
2021/03/28 04:11:01;;;;;;;6.90;2.40;;;;;;;7.25;77.00;101583.83;621334;231;24904;-77
2021/03/28 04:13:35;;;;;;;11.50;2.67;;;;;;;7.25;76.57;101590.30;618658;230;24905;-77
2021/03/28 04:16:13;;;;;;;10.30;2.30;;;;;;;7.56;76.18;101586.27;612877;230;32967;-77
2021/03/28 04:18:53;;;;;;;12.73;2.43;;;;;;;7.11;76.51;101598.86;630338;226;23825;-77
2021/03/28 04:21:24;;;;;;;6.70;2.30;;;;;;;7.27;76.42;101598.80;618215;231;24857;-77
2021/03/28 04:24:04;;;;;;;9.30;3.03;;;;;;;7.14;76.67;101604.69;639660;221;24779;-77
2021/03/28 04:26:43;;;;;;;10.00;2.60;;;;;;;7.06;77.36;101617.24;637845;222;24811;-78
2021/03/28 04:29:11;;;;;;;6.90;2.77;;;;;;;6.98;76.92;101614.25;637790;222;24800;-78
2021/03/28 04:31:46;;;;;;;10.40;3.10;;;;;;;7.31;75.72;101611.46;635097;222;34279;-78
2021/03/28 04:34:15;;;;;;;9.75;3.35;;;;;;;7.45;75.86;101605.47;637944;221;32653;-77
2021/03/28 04:36:43;;;;;;;6.50;2.00;;;;;;;6.99;77.19;101606.03;643710;221;23672;-77
2021/03/28 04:39:22;;;;;;;6.63;2.60;;;;;;;6.91;77.33;101611.66;618677;231;24919;-77
2021/03/28 04:42:11;;;;;;;8.98;2.80;;;;;;;7.11;76.04;101606.63;611319;230;33055;-77
2021/03/28 04:44:52;;;;;;;5.43;2.30;;;;;;;6.79;76.83;101617.05;627352;226;23712;-78
2021/03/28 04:47:30;;;;;;;4.63;2.47;;;;;;;6.61;78.14;101615.93;629545;227;24836;-77
2021/03/28 04:50:00;;;;;;;10.10;2.30;;;;;;;6.73;78.12;101623.01;623518;228;24924;-77
2021/03/28 04:52:40;;;;;;;7.30;2.80;;;;;;;6.42;78.67;101635.04;629882;225;24837;-77
2021/03/28 04:55:22;;;;;;;10.20;2.97;;;;;;;6.11;79.19;101650.06;623328;229;24886;-77
2021/03/28 04:58:00;;;;;;;10.35;3.08;;;;;;;6.12;79.80;101657.34;641203;220;32928;-76
2021/03/28 05:00:52;;;;;;;8.93;3.02;;;;;;;6.02;80.00;101658.28;640038;221;32670;-77
2021/03/28 05:03:30;;;;;;;8.47;3.43;;;;;;;5.88;81.33;101668.00;643773;222;23668;-76
2021/03/28 05:06:09;;;;;;;7.47;3.23;;;;;;;6.00;80.62;101658.82;643367;221;24791;-77
2021/03/28 05:09:01;;;;;;;7.40;2.70;;;;;;;6.07;79.93;101659.35;641341;222;25907;-78
2021/03/28 05:11:44;;;;;;;5.33;2.70;;;;;;;6.15;80.18;101646.84;640761;220;24809;-76
2021/03/28 05:14:42;;;;;;;11.20;3.07;;;;;;;6.15;79.65;101639.93;642160;221;24920;-77
2021/03/28 05:17:26;;;;;;;9.43;3.15;;;;;;;6.00;79.21;101642.03;634105;221;32704;-78
2021/03/28 05:20:16;;;;;;;7.23;2.73;;;;;;;5.68;80.06;101652.71;638953;222;23725;-77
2021/03/28 05:23:22;;;;;;;6.80;2.47;;;;;;;5.61;80.72;101650.05;630292;221;24791;-77
2021/03/28 05:26:07;;;;;;;5.33;2.77;;;;;;;5.55;80.44;101656.36;640086;221;24784;-77
2021/03/28 05:28:44;;;;;;;6.77;2.77;;;;;;;5.49;81.48;101654.11;613649;230;28069;-77
2021/03/28 05:31:19;;;;;;;11.47;2.80;;;;;;;5.61;80.89;101657.33;613515;231;24899;-77
2021/03/28 05:34:14;;;;;;;7.50;2.70;;;;;;;5.72;80.58;101650.34;626467;227;24841;-77
2021/03/28 05:36:54;;;;;;;6.73;2.67;;;;;;;5.73;80.43;101659.75;630221;226;24875;-77
2021/03/28 05:39:43;;;;;;;8.87;2.83;;;;;;;5.51;80.69;101661.31;615273;231;24887;-78
2021/03/28 05:42:35;;;;;;;13.13;3.27;;;;;;;5.61;80.59;101646.17;618358;231;26024;-78
2021/03/28 05:45:15;;;;;;;6.23;3.00;;;;;;;5.79;80.31;101645.26;630197;226;27992;-77
2021/03/28 05:47:48;;;;;;;9.80;3.03;;;;;;;5.94;79.41;101644.49;629457;226;25922;-77
2021/03/28 05:50:23;;;;;;;5.43;3.00;;;;;;;5.81;79.63;101649.88;643208;222;24818;-77
2021/03/28 05:53:24;;;;;;;8.20;2.93;;;;;;;5.81;79.76;101651.63;640043;221;24867;-77
2021/03/28 05:56:16;;;;;;;10.10;3.10;;;;;;;6.13;78.64;101649.52;623329;221;43650;-78
2021/03/28 05:58:49;;;;;;;10.00;3.10;;;;;;;5.98;79.77;101653.36;642134;222;23683;-77
2021/03/28 06:01:27;;;;;;;7.80;3.10;;;;;;;5.97;79.33;101668.48;646480;219;24818;-77
2021/03/28 06:04:35;;;;;;;14.50;3.60;;;;;;;5.85;80.12;101678.95;646607;220;24806;-78
2021/03/28 06:07:30;;;;;;;13.60;5.10;;;;;;;5.85;80.34;101683.66;643189;221;24819;-78
2021/03/28 06:10:19;;;;;;;7.35;3.15;;;;;;;5.96;80.20;101687.02;639012;221;32670;-77
2021/03/28 06:12:54;;;;;;;8.33;3.87;;;;;;;5.93;80.01;101694.92;641230;221;23709;-77
2021/03/28 06:15:30;;;;;;;11.50;3.67;;;;;;;6.12;79.54;101702.09;642874;222;24833;-77
2021/03/28 06:18:15;;;;;;;11.57;4.27;;;;;;;6.31;78.31;101706.28;645821;221;24817;-77
2021/03/28 06:20:56;;;;;;;12.63;3.37;;;;;;;6.37;78.30;101705.52;641025;220;24799;-77
2021/03/28 06:23:34;;;;;;;11.38;3.87;;;;;;;6.69;77.40;101695.20;635028;221;32803;-77
2021/03/28 06:26:29;;;;;;;7.73;3.33;;;;;;;6.69;77.63;101686.98;639498;221;23769;-77
2021/03/28 06:29:27;;;;;;;9.80;3.08;;;;;;;7.20;76.24;101684.18;641722;221;32908;-77
2021/03/28 06:32:11;;;;;;;12.43;4.15;;;;;;;7.42;75.84;101691.08;636975;221;32723;-77
2021/03/28 06:35:04;;;;;;;16.20;3.80;;;;;;;7.23;75.27;101682.25;640444;222;23687;-77
2021/03/28 06:37:44;;;;;;;8.70;3.33;;;;;;;7.15;75.71;101682.66;619202;230;24994;-77
2021/03/28 06:40:37;;;;;;;4.87;2.90;;;;;;;7.33;75.10;101682.10;643901;220;24806;-76
2021/03/28 06:43:40;;;;;;;10.37;3.33;;;;;;;7.45;74.92;101674.90;643522;221;24918;-77
2021/03/28 06:46:36;;;;;;;7.90;3.27;;;;;;;7.22;74.69;101683.17;637484;222;32667;-77
2021/03/28 06:49:17;;;;;;;9.53;3.10;;;;;;;7.51;75.30;101698.32;639780;221;24800;-77
2021/03/28 06:51:55;;;;;;;6.53;2.90;;;;;;;7.50;74.93;101702.30;643064;217;24842;-77
2021/03/28 06:54:41;;;;;;;8.63;3.27;;;;;;;7.54;74.52;101697.30;630816;226;24959;-77
2021/03/28 06:57:33;;;;;;;8.67;3.07;;;;;;;7.68;74.79;101710.28;617026;230;24980;-76
2021/03/28 07:00:25;;;;;;;5.73;3.30;;;;;;;7.47;74.57;101710.25;618762;231;24904;-76
2021/03/28 07:03:36;;;;;;;10.50;3.40;;;;;;;7.43;75.27;101714.73;624519;226;25128;-77
2021/03/28 07:06:07;;;;;;;10.18;4.00;;;;;;;7.68;74.25;101711.11;601361;230;33116;-76
2021/03/28 07:09:01;;;;;;;7.70;3.47;;;;;;;7.58;74.91;101725.97;619616;230;23735;-76
2021/03/28 07:11:34;;;;;;;12.57;6.50;;;;;;;7.54;74.76;101726.61;629202;226;25124;-76
2021/03/28 07:14:29;;;;;;;7.30;4.53;;;;;;;7.43;75.91;101731.11;646439;218;24788;-77
2021/03/28 07:17:21;;;;;;;8.20;2.97;;;;;;;7.65;75.42;101726.84;639805;220;24793;-77
2021/03/28 07:20:19;;;;;;;13.22;4.25;;;;;;;7.59;75.08;101734.94;633048;220;43370;-77
2021/03/28 07:22:57;;;;;;;10.10;4.20;;;;;;;7.41;75.95;101735.54;641817;220;23690;-77
2021/03/28 07:25:44;;;;;;;10.63;3.47;;;;;;;7.24;75.98;101728.36;640904;221;24779;-78
2021/03/28 07:28:38;;;;;;;8.37;3.33;;;;;;;7.36;75.97;101728.50;640525;221;26981;-76
2021/03/28 07:31:20;;;;;;;10.60;3.70;;;;;;;7.64;74.61;101737.28;648410;221;25054;-76
2021/03/28 07:33:58;;;;;;;6.70;3.30;;;;;;;7.95;74.23;101738.91;632047;221;24857;-76
2021/03/28 07:36:33;;;;;;;8.87;3.83;;;;;;;8.15;74.26;101730.77;642241;221;24768;-76
2021/03/28 07:39:16;;;;;;;10.40;3.30;;;;;;;8.47;73.26;101722.86;642099;221;24822;-76
2021/03/28 07:42:24;;;;;;;7.03;3.20;;;;;;;8.66;72.67;101715.59;629834;225;24834;-76
2021/03/28 07:45:05;;;;;;;8.13;3.60;;;;;;;8.57;71.33;101711.80;600018;230;24850;-76
2021/03/28 07:47:54;;;;;;;9.13;2.80;;;;;;;8.63;71.21;101711.44;618970;231;26021;-75
2021/03/28 07:50:36;;;;;;;8.17;3.13;;;;;;;8.58;70.45;101711.34;640989;221;25890;-77
2021/03/28 07:53:10;;;;;;;9.20;3.20;;;;;;;8.64;70.26;101712.27;638925;222;24791;-76
2021/03/28 07:55:39;;;;;;;7.27;3.17;;;;;;;8.97;70.15;101722.74;617900;230;24882;-76
2021/03/28 07:58:31;;;;;;;6.13;2.67;;;;;;;9.00;68.99;101722.08;638152;222;24784;-76
2021/03/28 08:01:07;;;;;;;7.57;3.13;;;;;;;9.33;69.11;101724.28;640251;221;24802;-76
2021/03/28 08:03:57;;;;;;;5.33;2.50;;;;;;;9.48;68.81;101720.69;641559;221;24775;-76
2021/03/28 08:06:37;;;;;;;8.50;3.27;;;;;;;9.71;69.00;101713.12;641181;221;24770;-75
2021/03/28 08:09:10;;;;;;;6.83;2.60;;;;;;;10.01;66.93;101710.25;638225;222;24794;-76
2021/03/28 08:11:55;;;;;;;8.50;2.60;;;;;;;9.77;66.63;101699.27;644769;221;24814;-76
2021/03/28 08:14:34;;;;;;;9.13;2.70;;;;;;;10.00;66.31;101705.98;639340;221;24818;-77
2021/03/28 08:17:09;;;;;;;9.33;2.70;;;;;;;10.49;65.49;101700.84;616685;230;24870;-76
2021/03/28 08:19:54;;;;;;;7.30;3.25;;;;;;;10.69;64.32;101693.74;620697;225;32900;-77
2021/03/28 08:22:26;;;;;;;5.60;2.60;;;;;;;10.83;64.54;101697.13;614610;230;23757;-76
2021/03/28 08:25:20;;;;;;;5.87;2.40;;;;;;;10.78;64.15;101689.67;612851;228;33267;-75
2021/03/28 08:28:20;;;;;;;9.90;2.80;;;;;;;10.86;64.12;101695.17;627550;225;33287;-76
2021/03/28 08:30:50;;;;;;;7.13;2.83;;;;;;;10.94;62.85;101690.22;615718;226;24809;-75
2021/03/28 08:33:42;;;;;;;11.23;2.63;;;;;;;11.37;63.47;101683.64;613640;229;24848;-76
2021/03/28 08:36:19;;;;;;;7.13;2.23;;;;;;;11.39;61.88;101679.14;629599;226;24875;-75
2021/03/28 08:38:59;;;;;;;6.90;2.50;;;;;;;11.48;63.17;101667.57;626228;227;27028;-76
2021/03/28 08:41:43;;;;;;;6.00;2.30;;;;;;;11.78;62.06;101662.28;620423;230;25160;-75
2021/03/28 08:44:22;;;;;;;11.10;2.33;;;;;;;11.69;60.98;101661.23;607701;231;33166;-77
2021/03/28 08:46:59;;;;;;;5.43;2.27;;;;;;;11.76;60.88;101666.31;626015;226;23757;-76
2021/03/28 08:49:28;;;;;;;5.73;2.37;;;;;;;11.56;60.60;101663.11;629964;227;23848;-76
2021/03/28 08:52:09;;;;;;;5.80;2.30;;;;;;;11.82;60.99;101665.90;630864;225;24906;-76
2021/03/28 08:54:39;;;;;;;4.73;2.63;;;;;;;12.47;59.71;101652.56;616074;229;25187;-75
2021/03/28 08:57:18;;;;;;;9.73;3.20;;;;;;;12.39;58.72;101649.75;628247;226;25252;-74
2021/03/28 08:59:53;;;;;;;7.23;2.30;;;;;;;12.63;59.66;101656.09;645366;222;24782;-75
2021/03/28 09:02:24;;;;;;;5.23;2.33;;;;;;;13.23;59.77;101650.32;641127;221;24758;-74
2021/03/28 09:04:53;;;;;;;7.97;2.50;;;;;;;12.76;58.07;101638.01;640022;221;24790;-75
2021/03/28 09:07:26;;;;;;;6.73;2.50;;;;;;;12.81;58.42;101638.10;628916;226;24811;-77
2021/03/28 09:10:01;;;;;;;7.33;2.53;;;;;;;13.30;58.23;101635.78;614627;230;24825;-75
2021/03/28 09:12:35;;;;;;;4.87;2.07;;;;;;;13.77;58.14;101633.55;617564;231;24356;-74
2021/03/28 09:15:09;;;;;;;6.37;2.50;;;;;;;13.07;56.61;101625.88;619909;230;24913;-75
2021/03/28 09:17:40;;;;;;;5.67;2.03;;;;;;;12.95;57.98;101630.83;626139;226;24859;-74
2021/03/28 09:20:15;;;;;;;5.73;1.90;;;;;;;12.75;57.67;101622.47;628174;227;24795;-77
2021/03/28 09:22:49;;;;;;;13.60;2.33;;;;;;;13.32;57.52;101621.27;648890;221;24812;-73
2021/03/28 09:25:20;;;;;;;6.83;1.80;;;;;;;13.61;58.26;101627.49;643441;221;24801;-76
2021/03/28 09:27:50;;;;;;;5.73;1.63;;;;;;;13.90;57.47;101621.08;644417;221;24813;-74
2021/03/28 09:30:25;;;;;;;6.10;1.93;;;;;;;13.82;55.58;101614.39;646025;221;24805;-74
2021/03/28 09:32:57;;;;;;;7.17;1.90;;;;;;;13.88;57.38;101619.56;641210;222;24833;-77
2021/03/28 09:35:50;;;;;;;6.05;2.00;;;;;;;13.98;56.62;101613.89;638372;222;32695;-77
2021/03/28 09:38:57;;;;;;;5.40;1.83;;;;;;;13.83;55.91;101617.36;631268;221;24787;-77
2021/03/28 09:41:35;;;;;;;9.07;2.13;;;;;;;13.66;56.08;101604.42;646590;220;24150;-73
2021/03/28 09:44:03;;;;;;;5.30;1.77;;;;;;;13.64;55.99;101610.23;641594;221;23804;-76
2021/03/28 09:46:36;;;;;;;8.60;1.90;;;;;;;14.06;55.89;101611.91;634293;222;32714;-76
2021/03/28 09:49:15;;;;;;;7.60;1.80;;;;;;;13.71;56.24;101611.86;643582;221;23814;-74
2021/03/28 09:52:06;;;;;;;9.30;1.80;;;;;;;13.70;55.65;101618.53;642278;221;23839;-76
2021/03/28 09:54:39;;;;;;;4.57;1.90;;;;;;;14.16;56.00;101607.54;638559;221;23838;-74
2021/03/28 09:57:34;;;;;;;11.57;1.80;;;;;;;13.91;54.20;101608.83;639042;221;24191;-75
2021/03/28 10:00:15;;;;;;;3.37;1.57;;;;;;;14.44;54.30;101600.73;638976;221;23829;-74
2021/03/28 10:02:46;;;;;;;6.73;1.87;;;;;;;14.93;54.24;101595.87;637410;221;25938;-74
2021/03/28 10:05:19;;;;;;;7.63;1.47;;;;;;;15.07;53.59;101588.89;639376;221;25003;-76
2021/03/28 10:07:51;;;;;;;7.03;1.70;;;;;;;14.90;53.04;101583.52;640605;221;23785;-76
2021/03/28 10:10:22;;;;;;;3.90;1.37;;;;;;;14.39;53.18;101581.49;641316;221;23829;-74
2021/03/28 10:12:51;;;;;;;4.80;2.00;;;;;;;14.68;53.55;101574.98;627068;226;24847;-74
2021/03/28 10:15:19;;;;;;;5.67;1.70;;;;;;;14.30;54.57;101578.37;641379;221;25896;-73
2021/03/28 10:17:48;;;;;;;7.43;2.83;;;;;;;14.21;53.86;101577.38;642701;221;25872;-74
2021/03/28 10:20:23;;;;;;;11.40;1.90;;;;;;;15.16;53.65;101568.86;639461;222;24347;-73
2021/03/28 10:22:59;;;;;;;4.43;2.27;;;;;;;15.09;52.62;101559.92;640262;222;23826;-73
2021/03/28 10:25:30;;;;;;;5.20;1.40;;;;;;;15.05;50.97;101553.28;640979;221;23853;-77
2021/03/28 10:28:12;;;;;;;2.87;1.43;;;;;;;15.07;52.75;101546.14;644126;221;29329;-78
2021/03/28 10:30:44;;;;;;;5.97;1.50;;;;;;;14.69;52.00;101556.17;641051;221;23802;-74
2021/03/28 10:33:18;;;;;;;14.23;1.90;;;;;;;14.77;51.57;101557.12;640853;221;23795;-74
2021/03/28 10:35:54;;;;;;;8.50;2.23;;;;;;;15.19;52.41;101542.36;645183;221;23794;-77
2021/03/28 10:38:30;;;;;;;5.47;1.73;;;;;;;15.37;52.13;101541.15;639280;221;23793;-77
2021/03/28 10:41:00;;;;;;;2.27;1.47;;;;;;;15.59;52.29;101537.31;640335;222;23850;-77
2021/03/28 10:43:40;;;;;;;5.93;2.00;;;;;;;15.97;51.83;101536.33;637632;221;33328;-77
2021/03/28 10:46:19;;;;;;;5.80;1.60;;;;;;;15.74;52.01;101530.64;635771;221;32913;-78
2021/03/28 10:49:12;;;;;;;5.20;2.00;;;;;;;15.17;52.69;101533.81;620867;225;32847;-77
2021/03/28 10:51:53;;;;;;;6.37;1.70;;;;;;;13.88;51.86;101526.72;623494;226;43820;-76
2021/03/28 10:54:37;;;;;;;2.73;1.57;;;;;;;13.90;51.04;101545.72;614344;230;22733;-77
2021/03/28 10:57:21;;;;;;;5.20;1.80;;;;;;;13.64;52.72;101541.43;617752;230;24896;-77
2021/03/28 11:00:04;;;;;;;5.27;1.90;;;;;;;13.94;52.90;101543.20;625997;225;24867;-77
2021/03/28 11:02:44;;;;;;;6.62;1.82;;;;;;;14.94;52.83;101537.27;608753;230;33296;-78
2021/03/28 11:05:41;;;;;;;4.23;1.97;;;;;;;15.23;51.52;101538.98;615923;230;23714;-75
2021/03/28 11:08:18;;;;;;;3.53;1.80;;;;;;;15.34;51.86;101538.79;624629;225;23854;-75
2021/03/28 11:11:08;;;;;;;7.80;1.73;;;;;;;14.64;51.41;101527.80;620010;231;23889;-74
2021/03/28 11:13:53;;;;;;;12.30;2.30;;;;;;;14.77;52.13;101529.61;617792;230;27034;-74
2021/03/28 11:16:25;;;;;;;6.97;1.70;;;;;;;14.53;52.77;101524.00;617222;230;24878;-75
2021/03/28 11:19:20;;;;;;;7.07;2.20;;;;;;;14.51;52.10;101523.32;631673;225;23851;-77
2021/03/28 11:21:51;;;;;;;4.00;1.57;;;;;;;14.59;51.65;101520.00;626826;225;24853;-77
2021/03/28 11:24:24;;;;;;;4.23;1.40;;;;;;;15.27;52.11;101518.89;614249;230;27044;-75
2021/03/28 11:27:26;;;;;;;3.30;1.57;;;;;;;15.07;51.00;101504.21;620419;230;24124;-75
2021/03/28 11:30:06;;;;;;;5.97;1.93;;;;;;;14.97;51.74;101503.41;613648;230;28048;-76
2021/03/28 11:32:47;;;;;;;7.47;2.43;;;;;;;15.39;52.37;101505.95;626840;227;24827;-75
2021/03/28 11:35:17;;;;;;;4.23;1.40;;;;;;;14.93;51.43;101495.49;615827;230;23857;-75
2021/03/28 11:37:46;;;;;;;2.50;1.40;;;;;;;15.10;51.44;101489.02;624890;226;24145;-75
2021/03/28 11:40:29;;;;;;;5.27;1.90;;;;;;;15.38;49.55;101484.63;613441;231;24964;-77
2021/03/28 11:43:14;;;;;;;8.10;1.67;;;;;;;14.96;51.29;101491.27;621226;230;24012;-77
2021/03/28 11:45:43;;;;;;;4.27;2.53;;;;;;;14.84;51.15;101490.61;629543;225;26014;-78
2021/03/28 11:48:23;;;;;;;5.28;1.77;;;;;;;15.44;51.85;101494.53;624896;226;32831;-77
2021/03/28 11:50:52;;;;;;;4.93;2.03;;;;;;;14.84;50.82;101482.27;631159;226;22901;-77
2021/03/28 11:53:21;;;;;;;7.23;1.80;;;;;;;15.07;51.63;101488.48;627284;228;23873;-77
2021/03/28 11:55:50;;;;;;;5.10;1.90;;;;;;;14.98;50.94;101482.30;632571;226;24833;-76
2021/03/28 11:58:27;;;;;;;2.50;1.40;;;;;;;15.18;51.07;101490.91;628318;226;23837;-77
2021/03/28 12:00:55;;;;;;;5.93;1.97;;;;;;;14.87;51.17;101480.33;633625;225;23841;-76
2021/03/28 12:03:28;;;;;;;6.00;2.00;;;;;;;15.27;50.73;101473.50;628795;225;24871;-75
2021/03/28 12:05:57;;;;;;;6.53;2.23;;;;;;;15.70;50.79;101465.86;644470;220;24834;-75
2021/03/28 12:08:25;;;;;;;3.67;1.40;;;;;;;15.61;50.79;101462.80;639967;221;24805;-77
2021/03/28 12:10:53;;;;;;;6.30;1.63;;;;;;;15.76;50.81;101460.49;645432;221;24795;-78
2021/03/28 12:13:29;;;;;;;9.70;1.80;;;;;;;15.36;50.61;101461.67;630260;225;23889;-75
2021/03/28 12:16:01;;;;;;;6.37;1.87;;;;;;;15.66;51.18;101457.13;627883;226;24819;-77
2021/03/28 12:18:41;;;;;;;8.13;1.67;;;;;;;16.00;49.26;101456.81;627325;226;32882;-77
2021/03/28 12:21:21;;;;;;;4.40;1.90;;;;;;;15.91;50.59;101447.23;630495;226;22725;-76
2021/03/28 12:23:57;;;;;;;5.67;1.97;;;;;;;16.17;49.16;101446.45;631412;225;23886;-78